Time;durP1;ratioP1;P1;durP2;ratioP2;P2;SDS_P1;SDS_P2;PMS_P1;PMS_P2;Temp;Humidity;BMP_temperature;BMP_pressure;BME280_temperature;BME280_humidity;BME280_pressure;Samples;Min_cycle;Max_cycle;Signal;HPM_P1;HPM_P2
2021/01/02 00:00:45;;;;;;;40.80;21.25;;;;;;;1.66;75.36;95654.03;5071943;28;20487;-65
2021/01/02 00:03:45;;;;;;;39.00;21.73;;;;;;;1.67;75.36;95653.78;5070930;28;20040;-65
2021/01/02 00:06:20;;;;;;;39.78;21.80;;;;;;;1.66;75.39;95657.53;5071926;28;20454;-66
2021/01/02 00:08:50;;;;;;;40.47;22.58;;;;;;;1.67;75.56;95661.84;5065807;28;20106;-65
2021/01/02 00:11:41;;;;;;;41.55;22.65;;;;;;;1.57;75.53;95656.53;5051302;28;20052;-65
2021/01/02 00:14:10;;;;;;;42.33;22.27;;;;;;;1.52;75.81;95661.94;5051315;28;20049;-66
2021/01/02 00:16:52;;;;;;;40.78;22.17;;;;;;;1.60;75.81;95655.16;5050302;28;20719;-65
2021/01/02 00:19:34;;;;;;;41.92;22.17;;;;;;;1.66;75.64;95654.84;5051798;28;20451;-65
2021/01/02 00:22:03;;;;;;;40.65;21.27;;;;;;;1.69;75.58;95648.94;5050760;28;20401;-65
2021/01/02 00:24:37;;;;;;;36.67;21.50;;;;;;;1.73;75.58;95654.56;5051196;28;20048;-65
2021/01/02 00:27:08;;;;;;;41.05;22.38;;;;;;;1.76;75.48;95654.78;5050583;28;20496;-66
2021/01/02 00:30:06;;;;;;;42.53;21.40;;;;;;;1.81;75.27;95654.75;5050971;28;20536;-65
2021/01/02 00:32:43;;;;;;;38.53;20.65;;;;;;;1.82;75.13;95653.66;5043754;28;20126;-65
2021/01/02 00:35:16;;;;;;;40.78;20.88;;;;;;;1.85;75.04;95662.25;5050069;28;20052;-65
2021/01/02 00:37:45;;;;;;;39.55;21.38;;;;;;;1.85;75.25;95656.88;5051641;28;20048;-65
2021/01/02 00:40:13;;;;;;;37.45;20.77;;;;;;;1.85;75.24;95664.94;5043425;28;20048;-66
2021/01/02 00:42:40;;;;;;;41.42;21.42;;;;;;;1.83;75.24;95663.34;5039231;28;20080;-65
2021/01/02 00:45:09;;;;;;;37.47;20.58;;;;;;;1.82;75.21;95659.03;5039727;28;20049;-66
2021/01/02 00:47:37;;;;;;;44.65;21.77;;;;;;;1.80;75.17;95655.84;5041668;28;20060;-66
2021/01/02 00:50:05;;;;;;;40.05;21.35;;;;;;;1.75;75.45;95653.19;5042321;28;20045;-66
2021/01/02 00:53:32;;;;;;;40.55;21.33;;;;;;;1.69;75.62;95657.00;5038546;28;20053;-65
2021/01/02 00:56:07;;;;;;;39.13;21.52;;;;;;;1.66;75.53;95654.84;5028940;28;20056;-65
2021/01/02 00:59:10;;;;;;;39.45;20.50;;;;;;;1.67;75.71;95656.47;5050784;28;20523;-65
2021/01/02 01:01:44;;;;;;;37.70;19.80;;;;;;;1.67;75.64;95656.47;5050143;28;20424;-65
2021/01/02 01:04:50;;;;;;;39.78;21.40;;;;;;;1.67;75.78;95648.41;5050410;28;20048;-65
2021/01/02 01:07:18;;;;;;;37.67;20.90;;;;;;;1.68;75.82;95657.28;5050317;28;20041;-65
2021/01/02 01:09:49;;;;;;;36.63;20.70;;;;;;;1.69;75.68;95664.25;5052292;28;20099;-65
2021/01/02 01:12:18;;;;;;;39.67;20.90;;;;;;;1.69;75.42;95665.03;5050607;28;20048;-65
2021/01/02 01:14:44;;;;;;;39.63;22.02;;;;;;;1.67;75.90;95661.00;5049708;28;20041;-65
2021/01/02 01:17:17;;;;;;;44.17;22.50;;;;;;;1.56;76.27;95649.53;5050746;28;20550;-66
2021/01/02 01:19:48;;;;;;;37.10;20.05;;;;;;;1.56;76.56;95658.38;5049927;28;20128;-65
2021/01/02 01:22:15;;;;;;;42.95;22.58;;;;;;;1.55;76.61;95664.03;5050307;28;20049;-65
2021/01/02 01:24:48;;;;;;;38.50;21.00;;;;;;;1.52;76.78;95668.09;5049966;28;20504;-65
2021/01/02 01:27:15;;;;;;;40.05;22.23;;;;;;;1.40;77.15;95672.97;5049801;28;20570;-65
2021/01/02 01:29:49;;;;;;;44.75;22.73;;;;;;;1.34;77.54;95674.09;5050412;28;20045;-65
2021/01/02 01:32:20;;;;;;;42.25;22.63;;;;;;;1.25;78.17;95676.56;5049250;28;20080;-65
2021/01/02 01:34:46;;;;;;;41.13;22.35;;;;;;;1.25;78.50;95671.19;5050778;28;20416;-65
2021/01/02 01:37:15;;;;;;;41.95;22.42;;;;;;;1.25;78.37;95670.34;5049150;28;20037;-65
2021/01/02 01:39:50;;;;;;;42.70;21.70;;;;;;;1.21;78.60;95675.50;5052918;28;20044;-65
2021/01/02 01:42:18;;;;;;;41.70;22.85;;;;;;;1.18;78.95;95680.59;5053418;28;20086;-65
2021/01/02 01:44:55;;;;;;;38.33;21.42;;;;;;;1.15;79.12;95671.22;5049873;28;20045;-66
2021/01/02 01:47:24;;;;;;;46.17;23.05;;;;;;;1.20;79.07;95668.53;5048611;28;20056;-65
2021/01/02 01:50:16;;;;;;;40.63;21.63;;;;;;;1.24;79.10;95664.19;5067484;28;20036;-65
2021/01/02 01:53:05;;;;;;;40.58;20.95;;;;;;;1.28;78.96;95665.25;5070433;28;20131;-65
2021/01/02 01:55:56;;;;;;;37.08;20.88;;;;;;;1.33;78.88;95671.69;5069615;28;20041;-65
2021/01/02 01:58:38;;;;;;;42.90;21.85;;;;;;;1.38;78.82;95677.03;5069782;28;20055;-66
2021/01/02 02:01:04;;;;;;;36.90;21.02;;;;;;;1.40;78.65;95674.84;5074192;28;20049;-66
2021/01/02 02:03:36;;;;;;;37.30;20.70;;;;;;;1.41;78.75;95674.59;5072414;28;20047;-65
2021/01/02 02:06:12;;;;;;;37.08;20.10;;;;;;;1.46;78.75;95677.25;5074222;28;20492;-66
2021/01/02 02:08:42;;;;;;;44.67;21.65;;;;;;;1.51;78.53;95674.53;5073373;28;20045;-66
2021/01/02 02:11:21;;;;;;;37.28;20.08;;;;;;;1.57;78.26;95672.63;5073206;28;20049;-66
2021/01/02 02:13:50;;;;;;;37.60;21.00;;;;;;;1.59;78.09;95681.19;5073718;28;20045;-66
2021/01/02 02:16:21;;;;;;;40.70;20.67;;;;;;;1.62;77.91;95671.78;5073880;28;20048;-65
2021/01/02 02:18:56;;;;;;;38.08;20.58;;;;;;;1.65;77.66;95676.59;5064394;28;20052;-65
2021/01/02 02:21:28;;;;;;;35.55;19.77;;;;;;;1.62;77.54;95680.66;5052640;28;20045;-65
2021/01/02 02:24:00;;;;;;;37.08;19.42;;;;;;;1.59;77.64;95681.19;5054193;28;20064;-65
2021/01/02 02:26:32;;;;;;;33.47;19.70;;;;;;;1.58;77.67;95679.59;5052761;28;20049;-65
2021/01/02 02:29:10;;;;;;;37.17;19.58;;;;;;;1.55;77.67;95688.19;5053439;28;20311;-65
2021/01/02 02:31:41;;;;;;;35.83;19.92;;;;;;;1.57;77.82;95688.72;5053499;28;20048;-65
2021/01/02 02:34:07;;;;;;;35.30;19.23;;;;;;;1.57;77.78;95683.38;5052832;28;20048;-66
2021/01/02 02:36:34;;;;;;;37.00;18.63;;;;;;;1.59;77.72;95683.88;5053920;28;20053;-65
2021/01/02 02:39:03;;;;;;;36.33;18.63;;;;;;;1.63;77.61;95681.47;5052381;28;20045;-65
2021/01/02 02:41:35;;;;;;;35.45;18.67;;;;;;;1.63;77.52;95674.22;5041415;28;20049;-65
2021/01/02 02:44:04;;;;;;;32.80;17.92;;;;;;;1.66;77.53;95670.94;5032080;28;20054;-68
2021/01/02 02:46:34;;;;;;;34.08;18.13;;;;;;;1.68;77.45;95666.13;5032464;28;20079;-65
2021/01/02 02:49:06;;;;;;;32.33;16.98;;;;;;;1.71;77.19;95668.22;5034253;28;20053;-65
2021/01/02 02:51:39;;;;;;;31.55;17.48;;;;;;;1.71;77.16;95662.88;5032826;28;20139;-65
2021/01/02 02:54:05;;;;;;;32.70;17.33;;;;;;;1.71;77.10;95660.19;5032762;28;20049;-66
2021/01/02 02:56:32;;;;;;;29.67;17.02;;;;;;;1.70;76.92;95653.22;5032178;28;20496;-65
2021/01/02 02:59:00;;;;;;;30.38;16.40;;;;;;;1.68;76.80;95652.69;5032570;28;20054;-66
2021/01/02 03:01:27;;;;;;;32.85;18.15;;;;;;;1.65;76.78;95652.44;5032199;28;20866;-65
2021/01/02 03:03:54;;;;;;;31.65;16.77;;;;;;;1.62;76.71;95648.47;5033626;28;20084;-65
2021/01/02 03:06:22;;;;;;;31.25;16.88;;;;;;;1.55;76.52;95661.34;5032106;28;20041;-65
2021/01/02 03:08:52;;;;;;;31.55;16.77;;;;;;;1.48;76.39;95652.81;5033170;28;20128;-65
2021/01/02 03:11:20;;;;;;;31.00;16.50;;;;;;;1.39;76.40;95654.47;5031252;28;20050;-65
2021/01/02 03:13:47;;;;;;;27.27;15.77;;;;;;;1.30;76.31;95652.41;5032691;28;20049;-65
2021/01/02 03:16:13;;;;;;;32.60;16.88;;;;;;;1.21;76.30;95643.31;5032415;28;20474;-65
2021/01/02 03:18:39;;;;;;;31.55;17.40;;;;;;;1.14;76.13;95648.16;5034321;28;20132;-65
2021/01/02 03:21:05;;;;;;;30.08;16.27;;;;;;;1.07;76.12;95647.66;5032500;28;20045;-66
2021/01/02 03:23:41;;;;;;;29.02;16.48;;;;;;;1.00;76.21;95647.16;5031838;28;20049;-65
2021/01/02 03:26:07;;;;;;;32.42;16.58;;;;;;;0.93;76.19;95636.72;5032370;28;20496;-66
2021/01/02 03:28:33;;;;;;;32.72;16.30;;;;;;;0.88;76.17;95643.97;5031945;28;20100;-66
2021/01/02 03:30:59;;;;;;;30.83;16.75;;;;;;;0.84;76.25;95648.28;5032739;28;20493;-65
2021/01/02 03:33:25;;;;;;;31.60;16.27;;;;;;;0.82;76.21;95650.44;5030963;28;20390;-65
2021/01/02 03:35:52;;;;;;;27.80;16.13;;;;;;;0.77;76.43;95651.25;5032223;28;20061;-65
2021/01/02 03:38:17;;;;;;;31.63;16.05;;;;;;;0.74;76.64;95660.66;5032078;28;20050;-66
2021/01/02 03:40:44;;;;;;;29.38;15.98;;;;;;;0.69;76.74;95663.34;5032022;28;20555;-65
2021/01/02 03:43:10;;;;;;;30.83;15.88;;;;;;;0.67;76.92;95676.19;5031760;28;20523;-65
2021/01/02 03:45:35;;;;;;;27.67;15.75;;;;;;;0.65;77.04;95680.22;5031748;28;20050;-65
2021/01/02 03:48:02;;;;;;;27.52;15.43;;;;;;;0.64;77.12;95679.44;5034628;28;20068;-67
2021/01/02 03:50:28;;;;;;;29.70;15.90;;;;;;;0.65;77.10;95680.22;5031324;28;20052;-65
2021/01/02 03:52:54;;;;;;;27.67;15.07;;;;;;;0.63;77.21;95675.16;5032547;28;20573;-65
2021/01/02 03:55:20;;;;;;;31.83;16.38;;;;;;;0.63;77.36;95674.34;5030954;28;20050;-65
2021/01/02 03:57:46;;;;;;;32.92;15.77;;;;;;;0.62;77.35;95667.38;5032247;28;20049;-65
2021/01/02 04:00:14;;;;;;;30.50;15.75;;;;;;;0.61;77.12;95671.13;5031289;28;20128;-66
2021/01/02 04:02:40;;;;;;;30.40;14.98;;;;;;;0.57;76.78;95657.44;5031771;28;20051;-65
2021/01/02 04:05:08;;;;;;;28.08;14.43;;;;;;;0.50;76.89;95659.63;5031799;28;20045;-67
2021/01/02 04:07:34;;;;;;;28.45;16.13;;;;;;;0.46;76.92;95663.91;5031443;28;20045;-65
2021/01/02 04:10:00;;;;;;;32.28;17.13;;;;;;;0.42;77.01;95676.25;5032261;28;20052;-65
2021/01/02 04:12:26;;;;;;;34.78;17.30;;;;;;;0.40;77.24;95670.34;5030638;28;20041;-65
2021/01/02 04:14:52;;;;;;;31.50;16.77;;;;;;;0.36;77.29;95663.94;5032376;28;20049;-65
2021/01/02 04:17:18;;;;;;;28.05;15.77;;;;;;;0.30;77.45;95662.31;5030544;28;20049;-65
2021/01/02 04:19:44;;;;;;;28.05;15.60;;;;;;;0.23;77.37;95665.28;5034113;28;20050;-65
2021/01/02 04:22:11;;;;;;;29.98;16.83;;;;;;;0.18;77.49;95668.78;5030777;28;20049;-66
2021/01/02 04:24:36;;;;;;;29.98;15.32;;;;;;;0.17;77.52;95667.16;5031427;28;20123;-65
2021/01/02 04:27:04;;;;;;;37.00;15.90;;;;;;;0.15;77.54;95663.94;5030915;28;20046;-66
2021/01/02 04:29:29;;;;;;;32.92;16.58;;;;;;;0.15;77.81;95666.63;5030502;28;20582;-65
2021/01/02 04:31:58;;;;;;;32.70;16.55;;;;;;;0.20;78.06;95665.81;5031735;28;20133;-65
2021/01/02 04:34:24;;;;;;;30.75;16.02;;;;;;;0.25;78.27;95669.28;5030163;28;20049;-65
2021/01/02 04:36:51;;;;;;;34.55;16.75;;;;;;;0.32;78.37;95678.94;5031754;28;20046;-65
2021/01/02 04:39:18;;;;;;;30.77;16.50;;;;;;;0.39;78.44;95674.91;5030215;28;20053;-65
2021/01/02 04:41:44;;;;;;;33.45;18.17;;;;;;;0.45;78.67;95662.31;5031806;28;20084;-65
2021/01/02 04:44:10;;;;;;;32.45;17.25;;;;;;;0.53;78.60;95664.44;5029817;28;20056;-65
2021/01/02 04:46:37;;;;;;;33.25;17.25;;;;;;;0.62;78.63;95662.00;5031454;28;20061;-65
2021/01/02 04:49:04;;;;;;;31.48;17.67;;;;;;;0.69;78.77;95657.97;5032462;28;20497;-65
2021/01/02 04:51:31;;;;;;;27.65;14.88;;;;;;;0.78;78.68;95666.25;5030728;28;20045;-65
2021/01/02 04:54:00;;;;;;;29.33;15.38;;;;;;;0.83;78.45;95668.09;5030776;28;20069;-65
2021/01/02 04:56:27;;;;;;;27.42;15.25;;;;;;;0.90;78.29;95663.28;5029926;28;20076;-65
2021/01/02 04:58:53;;;;;;;29.10;15.73;;;;;;;0.96;78.02;95675.59;5031242;28;20056;-65
2021/01/02 05:01:20;;;;;;;24.70;14.50;;;;;;;0.97;77.68;95663.78;5029452;28;20049;-65
2021/01/02 05:03:47;;;;;;;26.73;14.98;;;;;;;0.98;77.40;95660.03;5031514;28;20053;-65
2021/01/02 05:06:20;;;;;;;29.15;15.90;;;;;;;1.00;77.48;95663.25;5029559;28;20041;-65
2021/01/02 05:08:46;;;;;;;29.83;16.40;;;;;;;1.04;77.48;95672.31;5030876;28;20049;-65
2021/01/02 05:11:12;;;;;;;25.65;14.60;;;;;;;1.08;77.37;95675.28;5029572;28;20053;-65
2021/01/02 05:13:39;;;;;;;26.80;14.02;;;;;;;1.13;77.26;95673.38;5030395;28;20056;-65
2021/01/02 05:16:18;;;;;;;26.05;14.75;;;;;;;1.13;77.33;95684.09;5030449;28;20042;-66
2021/01/02 05:18:55;;;;;;;27.13;15.13;;;;;;;1.19;77.22;95677.63;5032223;28;20045;-65
2021/01/02 05:21:21;;;;;;;27.05;14.32;;;;;;;1.22;77.26;95666.38;5030756;28;20110;-65
2021/01/02 05:24:03;;;;;;;27.63;14.57;;;;;;;1.27;77.30;95676.28;5030053;28;20053;-65
2021/01/02 05:26:29;;;;;;;24.00;13.40;;;;;;;1.29;77.07;95661.50;5030457;28;20057;-65
2021/01/02 05:29:12;;;;;;;28.13;14.68;;;;;;;1.36;77.11;95665.75;5030067;28;20048;-65
2021/01/02 05:31:39;;;;;;;27.33;15.02;;;;;;;1.38;76.81;95667.09;5030092;28;20046;-66
2021/01/02 05:34:05;;;;;;;28.10;15.40;;;;;;;1.45;76.87;95680.19;5029579;28;20057;-65
2021/01/02 05:36:32;;;;;;;28.40;14.55;;;;;;;1.46;76.71;95679.13;5029989;28;20049;-65
2021/01/02 05:38:59;;;;;;;27.67;14.85;;;;;;;1.46;76.60;95687.16;5030832;28;20060;-65
2021/01/02 05:41:25;;;;;;;28.83;15.02;;;;;;;1.46;76.46;95687.16;5029236;28;20128;-65
2021/01/02 05:43:51;;;;;;;26.95;14.85;;;;;;;1.47;76.49;95684.22;5030876;28;20056;-65
2021/01/02 05:46:20;;;;;;;26.95;13.90;;;;;;;1.48;76.46;95690.38;5028940;28;20045;-65
2021/01/02 05:48:47;;;;;;;23.35;13.80;;;;;;;1.49;76.39;95687.41;5040181;28;20053;-65
2021/01/02 05:51:13;;;;;;;27.70;14.68;;;;;;;1.53;75.98;95699.22;5049451;28;20045;-66
2021/01/02 05:53:39;;;;;;;27.63;14.52;;;;;;;1.56;76.11;95695.16;5049911;28;20542;-65
2021/01/02 05:56:08;;;;;;;27.73;14.85;;;;;;;1.59;75.93;95686.56;5049500;28;20045;-66
2021/01/02 05:58:36;;;;;;;31.08;14.27;;;;;;;1.64;75.90;95686.53;5049655;28;20049;-65
2021/01/02 06:01:07;;;;;;;27.02;15.00;;;;;;;1.66;75.63;95681.69;5050027;28;20041;-66
2021/01/02 06:03:35;;;;;;;26.70;14.55;;;;;;;1.68;75.50;95687.59;5049339;28;20099;-65
2021/01/02 06:06:03;;;;;;;24.50;14.48;;;;;;;1.69;75.25;95680.34;5050171;28;20037;-66
2021/01/02 06:08:38;;;;;;;23.25;13.32;;;;;;;1.68;75.09;95684.13;5049458;28;20124;-66
2021/01/02 06:11:08;;;;;;;35.47;16.35;;;;;;;1.68;75.19;95701.00;5049669;28;20049;-66
2021/01/02 06:13:36;;;;;;;27.85;15.32;;;;;;;1.66;75.08;95697.78;5049864;28;20559;-65
2021/01/02 06:16:05;;;;;;;31.38;16.17;;;;;;;1.64;75.03;95689.22;5049796;28;20052;-66
2021/01/02 06:18:34;;;;;;;29.77;14.88;;;;;;;1.60;74.85;95676.63;5049926;28;20053;-65
2021/01/02 06:21:02;;;;;;;27.00;14.82;;;;;;;1.62;74.49;95677.97;5049210;28;20102;-65
2021/01/02 06:23:29;;;;;;;27.80;15.50;;;;;;;1.56;74.58;95687.91;5050179;28;20049;-65
2021/01/02 06:25:55;;;;;;;27.55;16.33;;;;;;;1.57;74.82;95699.47;5048838;28;20463;-65
2021/01/02 06:28:24;;;;;;;31.27;16.55;;;;;;;1.53;74.99;95701.09;5049972;28;20455;-65
2021/01/02 06:30:50;;;;;;;32.45;17.02;;;;;;;1.50;75.19;95704.31;5049032;28;20065;-65
2021/01/02 06:33:17;;;;;;;37.92;18.33;;;;;;;1.48;75.34;95706.47;5049284;28;20045;-65
2021/01/02 06:35:44;;;;;;;37.28;18.85;;;;;;;1.47;75.14;95696.84;5049190;28;20049;-65
2021/01/02 06:38:14;;;;;;;45.35;21.40;;;;;;;1.45;75.24;95701.66;5049156;28;20448;-66
2021/01/02 06:40:43;;;;;;;41.50;20.27;;;;;;;1.44;75.32;95700.06;5049965;28;20045;-65
2021/01/02 06:43:11;;;;;;;40.13;19.98;;;;;;;1.41;75.30;95700.59;5048433;28;20048;-65
2021/01/02 06:45:44;;;;;;;40.00;19.50;;;;;;;1.41;75.27;95711.31;5051032;28;20106;-65
2021/01/02 06:48:31;;;;;;;37.60;19.20;;;;;;;1.43;75.30;95709.19;5051589;28;20055;-65
2021/01/02 06:50:58;;;;;;;37.50;19.05;;;;;;;1.44;75.18;95710.78;5053210;28;20044;-65
2021/01/02 06:53:25;;;;;;;39.25;19.58;;;;;;;1.44;74.76;95706.22;5052558;28;20041;-66
2021/01/02 06:55:57;;;;;;;42.70;21.38;;;;;;;1.46;75.00;95697.88;5052923;28;20041;-63
2021/01/02 06:58:23;;;;;;;44.05;23.30;;;;;;;1.47;74.84;95704.88;5052894;28;20067;-65
2021/01/02 07:00:49;;;;;;;39.83;19.95;;;;;;;1.43;75.15;95710.00;5052512;28;20075;-65
2021/01/02 07:03:43;;;;;;;33.38;17.80;;;;;;;1.42;75.28;95712.97;5052876;28;20124;-65
2021/01/02 07:06:22;;;;;;;35.88;18.20;;;;;;;1.42;74.91;95708.41;5053180;28;20076;-66
2021/01/02 07:08:49;;;;;;;33.38;16.58;;;;;;;1.42;74.56;95712.97;5053662;28;20215;-65
2021/01/02 07:11:30;;;;;;;36.50;18.48;;;;;;;1.44;74.60;95702.75;5052914;28;20041;-65
2021/01/02 07:14:25;;;;;;;33.58;18.58;;;;;;;1.41;74.64;95700.59;5051889;28;20049;-65
2021/01/02 07:16:53;;;;;;;34.40;18.60;;;;;;;1.43;74.40;95703.81;5052614;28;20041;-65
2021/01/02 07:19:41;;;;;;;40.28;20.83;;;;;;;1.40;74.77;95709.72;5051142;28;20045;-65
2021/01/02 07:22:12;;;;;;;35.50;18.27;;;;;;;1.38;74.83;95701.16;5047758;28;20080;-66
2021/01/02 07:24:43;;;;;;;36.88;18.58;;;;;;;1.41;74.87;95703.28;5052439;28;20068;-65
2021/01/02 07:27:11;;;;;;;37.08;18.80;;;;;;;1.42;74.96;95702.22;5051235;28;20045;-64
2021/01/02 07:29:39;;;;;;;36.20;18.83;;;;;;;1.42;74.85;95697.66;5052613;28;20049;-65
2021/01/02 07:32:07;;;;;;;35.00;19.67;;;;;;;1.46;74.81;95697.88;5051307;28;20073;-65
2021/01/02 07:34:33;;;;;;;35.88;18.70;;;;;;;1.45;74.28;95701.66;5051812;28;20053;-65
2021/01/02 07:37:04;;;;;;;37.17;19.27;;;;;;;1.38;74.46;95701.16;5051622;28;20045;-65
2021/01/02 07:39:32;;;;;;;38.42;18.88;;;;;;;1.37;74.65;95692.31;5052591;28;20045;-65
2021/01/02 07:42:03;;;;;;;37.65;18.88;;;;;;;1.39;74.44;95698.19;5052673;28;20067;-64
2021/01/02 07:44:29;;;;;;;38.08;18.98;;;;;;;1.39;74.35;95692.03;5072116;28;20052;-65
2021/01/02 07:46:55;;;;;;;41.63;20.35;;;;;;;1.34;74.37;95694.75;5071814;28;20045;-65
2021/01/02 07:49:21;;;;;;;40.03;19.95;;;;;;;1.37;74.61;95705.72;5056302;28;20501;-66
2021/01/02 07:51:49;;;;;;;39.40;20.30;;;;;;;1.35;74.97;95704.38;5052316;28;20045;-65
2021/01/02 07:54:28;;;;;;;42.47;20.73;;;;;;;1.28;75.38;95702.81;5051149;28;20569;-65
2021/01/02 07:56:54;;;;;;;37.38;19.60;;;;;;;1.25;75.54;95703.38;5052221;28;20053;-65
2021/01/02 07:59:25;;;;;;;39.60;20.42;;;;;;;1.26;75.50;95702.28;5050886;28;20045;-65
2021/01/02 08:01:52;;;;;;;42.63;20.13;;;;;;;1.28;75.40;95699.31;5052309;28;20386;-65
2021/01/02 08:04:19;;;;;;;41.70;21.08;;;;;;;1.28;75.32;95702.81;5050968;28;20052;-65
2021/01/02 08:06:47;;;;;;;42.63;19.83;;;;;;;1.26;75.31;95698.81;5051828;28;20045;-65
2021/01/02 08:09:13;;;;;;;42.40;20.48;;;;;;;1.27;74.90;95697.72;5051184;28;20061;-65
2021/01/02 08:11:47;;;;;;;43.22;20.55;;;;;;;1.29;75.25;95693.69;5050982;28;20079;-65
2021/01/02 08:14:14;;;;;;;39.50;19.77;;;;;;;1.30;75.46;95695.31;5050996;28;20045;-65
2021/01/02 08:16:40;;;;;;;42.40;19.83;;;;;;;1.28;75.12;95694.75;5050854;28;20071;-65
2021/01/02 08:19:07;;;;;;;40.60;19.38;;;;;;;1.27;75.06;95706.56;5052074;28;20045;-66
2021/01/02 08:21:39;;;;;;;41.47;20.17;;;;;;;1.27;74.89;95706.56;5050739;28;20056;-65
2021/01/02 08:24:06;;;;;;;42.33;21.27;;;;;;;1.34;74.29;95702.78;5051355;28;20408;-65
2021/01/02 08:26:33;;;;;;;43.63;21.85;;;;;;;1.41;74.29;95716.69;5050754;28;20052;-65
2021/01/02 08:28:59;;;;;;;41.85;21.58;;;;;;;1.45;74.13;95723.13;5051922;28;20053;-63
2021/01/02 08:31:28;;;;;;;43.58;21.88;;;;;;;1.46;73.74;95725.56;5051463;28;20414;-65
2021/01/02 08:33:56;;;;;;;45.25;21.85;;;;;;;1.46;73.58;95730.91;5051035;28;20052;-63
2021/01/02 08:36:22;;;;;;;40.83;21.55;;;;;;;1.51;73.47;95732.75;5051219;28;20068;-63
2021/01/02 08:38:55;;;;;;;43.67;20.08;;;;;;;1.57;73.29;95723.63;5050536;28;20110;-63
2021/01/02 08:41:21;;;;;;;43.45;20.80;;;;;;;1.60;73.14;95720.38;5050102;28;20542;-63
2021/01/02 08:43:48;;;;;;;41.58;20.58;;;;;;;1.61;72.95;95723.84;5049949;28;20045;-64
2021/01/02 08:46:14;;;;;;;45.72;21.38;;;;;;;1.56;72.95;95724.69;5051033;28;20076;-64
2021/01/02 08:48:46;;;;;;;45.70;22.67;;;;;;;1.55;73.00;95739.19;5050780;28;20468;-63
2021/01/02 08:51:24;;;;;;;49.47;22.55;;;;;;;1.54;73.35;95727.63;5050555;28;20482;-63
2021/01/02 08:53:50;;;;;;;50.67;21.55;;;;;;;1.55;73.38;95723.06;5051025;28;20048;-63
2021/01/02 08:56:24;;;;;;;54.25;24.27;;;;;;;1.52;73.53;95729.81;5050011;28;20103;-63
2021/01/02 08:58:50;;;;;;;51.55;24.55;;;;;;;1.49;73.55;95734.91;5051402;28;20049;-64
2021/01/02 09:01:16;;;;;;;55.42;25.00;;;;;;;1.50;73.62;95731.94;5049441;28;20626;-65
2021/01/02 09:03:42;;;;;;;50.42;23.77;;;;;;;1.50;73.65;95736.50;5051289;28;20052;-63
2021/01/02 09:06:19;;;;;;;61.05;25.83;;;;;;;1.48;73.38;95738.69;5049540;28;20064;-66
2021/01/02 09:08:46;;;;;;;56.88;24.60;;;;;;;1.44;73.57;95751.03;5062867;28;20455;-66
2021/01/02 09:11:12;;;;;;;56.97;26.17;;;;;;;1.39;73.57;95748.38;5066337;28;20053;-66
2021/01/02 09:13:38;;;;;;;57.03;24.88;;;;;;;1.41;73.57;95743.53;5067028;28;20059;-66
2021/01/02 09:16:05;;;;;;;56.35;24.92;;;;;;;1.39;73.96;95741.13;5066870;28;20044;-66
2021/01/02 09:18:43;;;;;;;57.03;24.35;;;;;;;1.39;73.70;95737.63;5058529;28;20061;-66
2021/01/02 09:21:21;;;;;;;59.70;24.63;;;;;;;1.45;74.02;95733.84;5047036;28;20060;-66
2021/01/02 09:23:47;;;;;;;57.75;26.13;;;;;;;1.53;74.25;95738.66;5046529;28;20053;-66
2021/01/02 09:26:21;;;;;;;50.92;24.83;;;;;;;1.56;74.63;95730.03;5047017;28;20047;-66
2021/01/02 09:28:48;;;;;;;56.00;25.25;;;;;;;1.59;74.05;95740.25;5046476;28;20056;-66
2021/01/02 09:31:14;;;;;;;56.72;25.05;;;;;;;1.59;73.79;95739.44;5046579;28;20053;-64
2021/01/02 09:33:40;;;;;;;56.38;24.65;;;;;;;1.58;73.54;95748.56;5046830;28;20061;-64
2021/01/02 09:36:06;;;;;;;59.60;27.25;;;;;;;1.57;74.24;95745.09;5046417;28;20102;-64
2021/01/02 09:38:33;;;;;;;53.75;24.10;;;;;;;1.61;73.94;95748.81;5055653;28;20056;-65
2021/01/02 09:41:00;;;;;;;52.00;23.95;;;;;;;1.65;73.57;95749.88;5066284;28;20469;-65
2021/01/02 09:43:28;;;;;;;51.42;24.60;;;;;;;1.67;74.03;95747.72;5067019;28;20504;-64
2021/01/02 09:45:54;;;;;;;49.47;22.10;;;;;;;1.64;73.50;95737.53;5066285;28;20511;-64
2021/01/02 09:48:20;;;;;;;45.97;21.52;;;;;;;1.64;73.18;95759.00;5059938;28;20048;-65
2021/01/02 09:50:46;;;;;;;41.78;20.42;;;;;;;1.61;72.88;95759.53;5046379;28;20207;-64
2021/01/02 09:53:13;;;;;;;47.03;21.58;;;;;;;1.65;73.02;95767.84;5046501;28;20052;-64
2021/01/02 09:55:39;;;;;;;43.35;20.63;;;;;;;1.68;72.90;95761.94;5046668;28;20570;-64
2021/01/02 09:58:06;;;;;;;46.90;22.65;;;;;;;1.63;72.31;95768.13;5045962;28;20053;-65
2021/01/02 10:00:32;;;;;;;50.85;22.17;;;;;;;1.61;72.03;95770.28;5046850;28;20379;-64
2021/01/02 10:02:59;;;;;;;45.55;20.73;;;;;;;1.57;71.60;95777.28;5046450;28;20053;-64
2021/01/02 10:05:27;;;;;;;51.45;22.30;;;;;;;1.49;71.29;95788.56;5046665;28;20114;-65
2021/01/02 10:07:54;;;;;;;49.03;22.17;;;;;;;1.48;71.75;95792.34;5045931;28;20099;-65
2021/01/02 10:10:20;;;;;;;45.05;21.33;;;;;;;1.45;71.64;95782.16;5046787;28;20144;-65
2021/01/02 10:12:48;;;;;;;45.70;21.23;;;;;;;1.41;72.06;95778.41;5046223;28;20415;-65
2021/01/02 10:15:16;;;;;;;52.10;24.73;;;;;;;1.36;72.30;95773.03;5046429;28;20466;-65
2021/01/02 10:17:43;;;;;;;48.92;21.35;;;;;;;1.38;72.55;95762.88;5046379;28;20053;-65
2021/01/02 10:20:11;;;;;;;50.67;23.08;;;;;;;1.38;72.10;95765.53;5047726;28;20060;-65
2021/01/02 10:22:37;;;;;;;50.78;22.70;;;;;;;1.42;72.46;95755.88;5050523;28;20428;-65
2021/01/02 10:25:04;;;;;;;57.75;23.13;;;;;;;1.39;72.45;95748.38;5049536;28;20500;-65
2021/01/02 10:27:30;;;;;;;49.80;22.40;;;;;;;1.25;71.99;95746.28;5050375;28;20063;-65
2021/01/02 10:29:56;;;;;;;54.92;24.17;;;;;;;1.23;72.40;95734.22;5049879;28;20118;-64
2021/01/02 10:32:26;;;;;;;57.17;23.33;;;;;;;1.15;72.80;95719.50;5050349;28;20047;-64
2021/01/02 10:34:52;;;;;;;53.85;22.92;;;;;;;1.06;73.22;95721.13;5049807;28;20053;-65
2021/01/02 10:37:22;;;;;;;52.08;22.73;;;;;;;1.06;73.36;95717.66;5049655;28;20155;-65
2021/01/02 10:39:49;;;;;;;57.75;23.50;;;;;;;1.05;73.20;95714.16;5049836;28;20056;-65
2021/01/02 10:42:16;;;;;;;52.00;22.33;;;;;;;1.02;73.09;95731.59;5049641;28;20483;-65
2021/01/02 10:44:46;;;;;;;50.17;22.13;;;;;;;1.03;73.03;95729.72;5050159;28;20072;-65
2021/01/02 10:47:12;;;;;;;63.67;27.55;;;;;;;1.05;73.60;95735.63;5049247;28;20134;-65
2021/01/02 10:49:40;;;;;;;60.22;26.52;;;;;;;1.00;73.84;95738.31;5050429;28;20104;-64
2021/01/02 10:52:06;;;;;;;54.75;23.00;;;;;;;1.01;73.87;95734.56;5048824;28;20053;-66
2021/01/02 10:54:33;;;;;;;56.35;23.92;;;;;;;1.00;73.54;95730.28;5050485;28;20083;-65
2021/01/02 10:56:59;;;;;;;53.97;23.02;;;;;;;1.02;73.53;95725.44;5049443;28;20088;-65
2021/01/02 10:59:25;;;;;;;50.95;21.83;;;;;;;1.03;73.27;95710.94;5049587;28;20056;-65
2021/01/02 11:01:53;;;;;;;50.33;22.73;;;;;;;1.02;73.24;95712.03;5049366;28;20049;-65
2021/01/02 11:04:21;;;;;;;56.25;24.05;;;;;;;1.00;73.43;95709.63;5049432;28;20049;-65
2021/01/02 11:06:50;;;;;;;58.55;23.38;;;;;;;1.03;73.19;95710.94;5049658;28;20052;-65
2021/01/02 11:09:18;;;;;;;54.15;23.95;;;;;;;1.05;73.18;95695.41;5048579;28;20719;-65
2021/01/02 11:11:44;;;;;;;57.42;23.17;;;;;;;1.02;73.26;95690.56;5049485;28;20051;-65
2021/01/02 11:14:11;;;;;;;51.22;23.00;;;;;;;0.93;73.44;95692.22;5048702;28;20052;-65
2021/01/02 11:16:39;;;;;;;51.22;22.95;;;;;;;0.93;73.26;95684.16;5049936;28;20072;-64
2021/01/02 11:19:10;;;;;;;60.05;23.85;;;;;;;0.95;73.28;95682.03;5048656;28;20412;-64
2021/01/02 11:21:36;;;;;;;52.47;22.52;;;;;;;0.93;73.36;95700.25;5049598;28;20523;-64
2021/01/02 11:24:04;;;;;;;50.67;22.73;;;;;;;0.90;73.42;95706.16;5048329;28;20131;-65
2021/01/02 11:26:29;;;;;;;59.10;24.90;;;;;;;0.85;74.47;95698.13;5049577;28;20060;-66
2021/01/02 11:28:55;;;;;;;51.72;23.58;;;;;;;0.74;74.12;95690.13;5048904;28;20079;-65
2021/01/02 11:31:28;;;;;;;48.83;22.75;;;;;;;0.68;73.89;95693.91;5047855;28;20049;-64
2021/01/02 11:33:54;;;;;;;43.33;19.38;;;;;;;0.64;74.07;95695.50;5049115;28;20135;-65
2021/01/02 11:36:20;;;;;;;61.25;26.48;;;;;;;0.59;74.66;95705.44;5048475;28;20064;-64